createdAt,value
2022-10-11T00:00:42.650Z,14.68
2022-10-11T00:01:42.687Z,14.69
2022-10-11T00:02:42.604Z,14.74
2022-10-11T00:03:42.590Z,14.61
2022-10-11T00:04:42.562Z,14.62
2022-10-11T00:05:42.542Z,14.54
2022-10-11T00:06:42.519Z,14.62
2022-10-11T00:07:42.496Z,14.50
2022-10-11T00:08:42.478Z,14.46
2022-10-11T00:09:42.551Z,14.61
2022-10-11T00:10:42.439Z,14.52
2022-10-11T00:11:42.410Z,14.50
2022-10-11T00:12:42.399Z,14.46
2022-10-11T00:13:42.375Z,14.42
2022-10-11T00:14:42.364Z,14.39
2022-10-11T00:15:42.332Z,14.38
2022-10-11T00:16:42.304Z,14.38
2022-10-11T00:17:42.285Z,14.19
2022-10-11T00:18:42.267Z,14.24
2022-10-11T00:19:42.249Z,14.19
2022-10-11T00:20:42.225Z,14.24
2022-10-11T00:21:42.209Z,14.21
2022-10-11T00:22:42.180Z,14.13
2022-10-11T00:23:42.165Z,14.20
2022-10-11T00:24:42.145Z,14.16
2022-10-11T00:25:42.131Z,14.01
2022-10-11T00:26:46.408Z,14.01
2022-10-11T00:27:42.075Z,14.01
2022-10-11T00:28:42.107Z,13.94
2022-10-11T00:29:42.027Z,13.88
2022-10-11T00:30:42.015Z,13.76
2022-10-11T00:31:41.990Z,13.88
2022-10-11T00:32:41.971Z,13.98
2022-10-11T00:33:41.950Z,13.89
2022-10-11T00:34:41.925Z,13.88
2022-10-11T00:35:41.909Z,13.81
2022-10-11T00:36:41.882Z,13.79
2022-10-11T00:37:41.856Z,13.69
2022-10-11T00:38:41.838Z,13.69
2022-10-11T00:39:41.814Z,13.73
2022-10-11T00:40:41.798Z,13.62
2022-10-11T00:41:41.774Z,13.54
2022-10-11T00:42:41.752Z,13.49
2022-10-11T00:43:41.735Z,13.32
2022-10-11T00:44:41.718Z,13.32
2022-10-11T00:45:41.683Z,13.17
2022-10-11T00:46:41.690Z,13.20
2022-10-11T00:47:41.658Z,13.09
2022-10-11T00:48:41.625Z,13.07
2022-10-11T00:49:41.596Z,13.18
2022-10-11T00:50:41.587Z,13.07
2022-10-11T00:51:41.555Z,13.07
2022-10-11T00:52:41.541Z,13.00
2022-10-11T00:53:41.510Z,13.04
2022-10-11T00:54:41.492Z,13.02
2022-10-11T00:55:41.469Z,13.06
2022-10-11T00:56:41.458Z,13.14
2022-10-11T00:57:41.420Z,13.21
2022-10-11T00:58:41.408Z,13.20
2022-10-11T00:59:41.386Z,13.18
2022-10-11T01:00:41.356Z,13.17
2022-10-11T01:01:41.392Z,13.12
2022-10-11T01:02:41.311Z,13.09
2022-10-11T01:03:41.287Z,13.07
2022-10-11T01:04:41.280Z,13.02
2022-10-11T01:05:41.250Z,13.03
2022-10-11T01:06:41.219Z,12.95
2022-10-11T01:07:41.201Z,12.89
2022-10-11T01:08:41.178Z,12.87
2022-10-11T01:09:41.158Z,12.89
2022-10-11T01:10:41.138Z,12.88
2022-10-11T01:11:41.113Z,12.84
2022-10-11T01:12:41.096Z,12.88
2022-10-11T01:13:41.072Z,12.85
2022-10-11T01:14:41.053Z,12.84
2022-10-11T01:15:41.023Z,12.82
2022-10-11T01:16:41.011Z,12.85
2022-10-11T01:17:40.979Z,12.81
2022-10-11T01:18:40.958Z,12.81
2022-10-11T01:19:40.936Z,12.71
2022-10-11T01:20:40.913Z,12.64
2022-10-11T01:21:40.893Z,12.67
2022-10-11T01:22:40.873Z,12.64
2022-10-11T01:23:40.857Z,12.56
2022-10-11T01:24:40.824Z,12.44
2022-10-11T01:25:40.802Z,12.39
2022-10-11T01:26:40.777Z,12.31
2022-10-11T01:27:40.757Z,12.30
2022-10-11T01:28:40.814Z,12.30
2022-10-11T01:29:40.710Z,12.24
2022-10-11T01:30:40.701Z,12.42
2022-10-11T01:31:40.758Z,12.37
2022-10-11T01:32:40.640Z,12.51
2022-10-11T01:33:40.624Z,12.49
2022-10-11T01:34:40.600Z,12.51
2022-10-11T01:35:40.573Z,12.51
2022-10-11T01:36:40.555Z,12.63
2022-10-11T01:37:40.537Z,12.66
2022-10-11T01:38:40.514Z,12.63
2022-10-11T01:39:40.512Z,12.71
2022-10-11T01:40:40.463Z,12.84
2022-10-11T01:41:40.468Z,12.87
2022-10-11T01:42:40.441Z,12.92
2022-10-11T01:43:40.397Z,13.03
2022-10-11T01:44:40.373Z,13.04
2022-10-11T01:45:40.349Z,13.18
2022-10-11T01:46:40.334Z,13.14
2022-10-11T01:47:40.304Z,13.15
2022-10-11T01:48:40.294Z,13.21
2022-10-11T01:49:40.258Z,13.21
2022-10-11T01:50:40.241Z,13.06
2022-10-11T01:51:43.000Z,13.02
2022-10-11T01:52:40.191Z,12.99
2022-10-11T01:53:40.181Z,12.97
2022-10-11T01:55:07.489Z,12.87
2022-10-11T01:55:40.138Z,12.96
2022-10-11T01:56:40.106Z,12.99
2022-10-11T01:57:40.083Z,12.89
2022-10-11T01:58:40.061Z,12.99
2022-10-11T01:59:40.042Z,12.78
2022-10-11T02:00:40.017Z,12.81
2022-10-11T02:01:40.046Z,12.84
2022-10-11T02:02:39.987Z,12.88
2022-10-11T02:03:39.951Z,12.87
2022-10-11T02:04:39.925Z,12.89
2022-10-11T02:05:39.901Z,12.81
2022-10-11T02:06:39.898Z,12.84
2022-10-11T02:07:39.856Z,12.78
2022-10-11T02:08:39.868Z,12.74
2022-10-11T02:09:39.810Z,12.77
2022-10-11T02:10:39.791Z,12.75
2022-10-11T02:11:39.789Z,12.69
2022-10-11T02:12:39.745Z,12.62
2022-10-11T02:13:39.735Z,12.69
2022-10-11T02:14:39.704Z,12.57
2022-10-11T02:15:39.680Z,12.54
2022-10-11T02:16:39.655Z,12.52
2022-10-11T02:17:39.633Z,12.54
2022-10-11T02:18:39.611Z,12.51
2022-10-11T02:19:39.600Z,12.46
2022-10-11T02:20:39.567Z,12.46
2022-10-11T02:21:39.545Z,12.41
2022-10-11T02:22:39.521Z,12.44
2022-10-11T02:23:39.500Z,12.44
2022-10-11T02:24:39.481Z,12.42
2022-10-11T02:25:39.454Z,12.44
2022-10-11T02:26:39.440Z,12.45
2022-10-11T02:27:39.410Z,12.45
2022-10-11T02:28:39.500Z,12.46
2022-10-11T02:29:39.364Z,12.38
2022-10-11T02:30:39.341Z,12.31
2022-10-11T02:31:39.318Z,12.29
2022-10-11T02:32:39.299Z,12.31
2022-10-11T02:33:39.285Z,12.31
2022-10-11T02:34:39.254Z,12.29
2022-10-11T02:35:39.239Z,12.26
2022-10-11T02:36:39.206Z,12.26
2022-10-11T02:37:39.185Z,12.26
2022-10-11T02:38:39.180Z,12.21
2022-10-11T02:39:39.141Z,12.27
2022-10-11T02:40:39.116Z,12.31
2022-10-11T02:41:39.097Z,12.24
2022-10-11T02:42:39.072Z,12.27
2022-10-11T02:43:39.057Z,12.24
2022-10-11T02:44:39.024Z,12.26
2022-10-11T02:45:39.017Z,12.12
2022-10-11T02:46:38.980Z,12.12
2022-10-11T02:47:38.962Z,12.21
2022-10-11T02:48:38.937Z,12.21
2022-10-11T02:49:38.928Z,12.13
2022-10-11T02:50:38.915Z,12.16
2022-10-11T02:51:38.867Z,12.13
2022-10-11T02:52:38.861Z,12.09
2022-10-11T02:53:38.825Z,12.08
2022-10-11T02:54:38.800Z,12.01
2022-10-11T02:55:38.787Z,12.01
2022-10-11T02:56:38.759Z,12.04
2022-10-11T02:57:38.736Z,11.99
2022-10-11T02:58:38.718Z,12.02
2022-10-11T02:59:38.693Z,12.04
2022-10-11T03:00:38.665Z,11.93
2022-10-11T03:01:38.718Z,11.97
2022-10-11T03:02:38.621Z,11.80
2022-10-11T03:03:38.596Z,11.82
2022-10-11T03:04:38.578Z,11.85
2022-10-11T03:05:38.556Z,11.83
2022-10-11T03:06:38.539Z,11.75
2022-10-11T03:07:38.507Z,11.78
2022-10-11T03:08:38.483Z,11.65
2022-10-11T03:09:38.458Z,11.75
2022-10-11T03:10:38.440Z,11.71
2022-10-11T03:11:38.416Z,11.68
2022-10-11T03:12:38.400Z,11.65
2022-10-11T03:13:38.367Z,11.61
2022-10-11T03:14:38.347Z,11.54
2022-10-11T03:15:38.329Z,11.57
2022-10-11T03:16:38.301Z,11.53
2022-10-11T03:17:38.275Z,11.52
2022-10-11T03:18:38.258Z,11.44
2022-10-11T03:19:38.231Z,11.38
2022-10-11T03:20:38.216Z,11.38
2022-10-11T03:21:38.191Z,11.38
2022-10-11T03:22:38.168Z,11.34
2022-10-11T03:23:38.139Z,11.36
2022-10-11T03:24:38.115Z,11.31
2022-10-11T03:25:38.095Z,11.28
2022-10-11T03:26:38.077Z,11.34
2022-10-11T03:27:38.052Z,11.29
2022-10-11T03:28:38.056Z,11.20
2022-10-11T03:29:38.009Z,11.25
2022-10-11T03:30:37.981Z,11.25
2022-10-11T03:31:37.954Z,11.27
2022-10-11T03:32:37.934Z,11.29
2022-10-11T03:33:37.911Z,11.25
2022-10-11T03:34:37.884Z,11.31
2022-10-11T03:35:37.865Z,11.29
2022-10-11T03:36:37.838Z,11.29
2022-10-11T03:37:37.818Z,11.24
2022-10-11T03:38:37.799Z,11.07
2022-10-11T03:39:37.774Z,11.09
2022-10-11T03:40:37.748Z,11.16
2022-10-11T03:41:37.726Z,11.07
2022-10-11T03:42:37.712Z,11.01
2022-10-11T03:43:37.682Z,10.99
2022-10-11T03:44:37.659Z,10.95
2022-10-11T03:45:37.646Z,10.88
2022-10-11T03:46:37.612Z,10.84
2022-10-11T03:47:37.587Z,10.86
2022-10-11T03:48:37.567Z,10.84
2022-10-11T03:49:41.305Z,10.81
2022-10-11T03:50:37.522Z,10.88
2022-10-11T03:51:37.496Z,10.84
2022-10-11T03:52:37.485Z,10.78
2022-10-11T03:53:37.443Z,10.78
2022-10-11T03:54:37.423Z,10.77
2022-10-11T03:55:37.409Z,10.62
2022-10-11T03:56:37.391Z,10.60
2022-10-11T03:57:37.365Z,10.47
2022-10-11T03:58:37.329Z,10.58
2022-10-11T03:59:37.312Z,10.53
2022-10-11T04:00:37.294Z,10.52
2022-10-11T04:01:37.310Z,10.46
2022-10-11T04:02:39.311Z,10.44
2022-10-11T04:03:37.212Z,10.44
2022-10-11T04:04:37.202Z,10.36
2022-10-11T04:05:37.171Z,10.33
2022-10-11T04:06:37.147Z,10.30
2022-10-11T04:07:37.122Z,10.28
2022-10-11T04:08:37.099Z,10.24
2022-10-11T04:09:37.077Z,10.10
2022-10-11T04:10:37.056Z,9.97
2022-10-11T04:11:37.024Z,9.97
2022-10-11T04:12:37.002Z,9.85
2022-10-11T04:13:36.981Z,9.86
2022-10-11T04:14:36.962Z,9.86
2022-10-11T04:15:36.934Z,9.86
2022-10-11T04:16:36.915Z,9.78
2022-10-11T04:17:36.889Z,9.82
2022-10-11T04:18:36.864Z,9.79
2022-10-11T04:19:36.839Z,9.79
2022-10-11T04:20:36.816Z,9.67
2022-10-11T04:21:36.792Z,9.73
2022-10-11T04:22:36.769Z,9.70
2022-10-11T04:23:36.743Z,9.70
2022-10-11T04:24:36.722Z,9.70
2022-10-11T04:25:36.696Z,9.75
2022-10-11T04:26:36.674Z,9.61
2022-10-11T04:27:36.652Z,9.68
2022-10-11T04:28:36.680Z,9.52
2022-10-11T04:29:36.602Z,9.58
2022-10-11T04:30:36.578Z,9.52
2022-10-11T04:31:36.556Z,9.58
2022-10-11T04:32:36.531Z,9.49
2022-10-11T04:33:36.514Z,9.46
2022-10-11T04:34:36.494Z,9.40
2022-10-11T04:35:36.461Z,9.39
2022-10-11T04:36:36.459Z,9.32
2022-10-11T04:37:36.418Z,9.35
2022-10-11T04:38:36.394Z,9.30
2022-10-11T04:39:36.376Z,9.23
2022-10-11T04:40:36.341Z,9.25
2022-10-11T04:41:36.314Z,9.24
2022-10-11T04:42:36.293Z,9.24
2022-10-11T04:43:36.276Z,9.21
2022-10-11T04:44:36.310Z,9.15
2022-10-11T04:45:36.227Z,9.20
2022-10-11T04:46:36.196Z,9.13
2022-10-11T04:47:36.181Z,9.06
2022-10-11T04:48:36.156Z,8.96
2022-10-11T04:49:36.127Z,9.04
2022-10-11T04:50:36.101Z,9.02
2022-10-11T04:51:36.080Z,9.04
2022-10-11T04:52:36.056Z,8.97
2022-10-11T04:53:36.029Z,8.96
2022-10-11T04:54:36.014Z,8.96
2022-10-11T04:55:35.985Z,8.90
2022-10-11T04:56:35.970Z,8.93
2022-10-11T04:57:35.948Z,8.99
2022-10-11T04:58:35.919Z,9.04
2022-10-11T04:59:35.884Z,8.99
2022-10-11T05:00:35.866Z,8.86
2022-10-11T05:01:35.900Z,8.91
2022-10-11T05:02:35.819Z,8.81
2022-10-11T05:03:35.794Z,8.84
2022-10-11T05:04:35.769Z,8.79
2022-10-11T05:05:35.744Z,8.78
2022-10-11T05:06:35.717Z,8.78
2022-10-11T05:07:35.704Z,8.68
2022-10-11T05:08:35.670Z,8.71
2022-10-11T05:09:35.647Z,8.60
2022-10-11T05:10:35.624Z,8.60
2022-10-11T05:11:35.602Z,8.62
2022-10-11T05:12:35.580Z,8.62
2022-10-11T05:13:35.562Z,8.57
2022-10-11T05:14:35.527Z,8.62
2022-10-11T05:15:35.501Z,8.55
2022-10-11T05:16:35.477Z,8.48
2022-10-11T05:17:35.451Z,8.53
2022-10-11T05:18:35.432Z,8.57
2022-10-11T05:19:35.408Z,8.53
2022-10-11T05:20:35.378Z,8.58
2022-10-11T05:21:35.369Z,8.53
2022-10-11T05:22:35.336Z,8.53
2022-10-11T05:23:35.320Z,8.58
2022-10-11T05:24:35.285Z,8.51
2022-10-11T05:25:35.259Z,8.50
2022-10-11T05:26:35.239Z,8.58
2022-10-11T05:27:35.213Z,8.55
2022-10-11T05:28:35.256Z,8.44
2022-10-11T05:29:35.163Z,8.60
2022-10-11T05:30:35.143Z,8.53
2022-10-11T05:31:35.116Z,8.58
2022-10-11T05:32:35.092Z,8.66
2022-10-11T05:33:35.090Z,8.78
2022-10-11T05:34:35.045Z,8.81
2022-10-11T05:35:35.020Z,8.86
2022-10-11T05:36:34.992Z,8.96
2022-10-11T05:37:34.970Z,9.02
2022-10-11T05:38:34.943Z,9.04
2022-10-11T05:39:34.950Z,9.06
2022-10-11T05:40:34.902Z,9.05
2022-10-11T05:41:34.872Z,9.05
2022-10-11T05:42:34.854Z,9.12
2022-10-11T05:43:34.824Z,8.99
2022-10-11T05:44:34.802Z,9.02
2022-10-11T05:45:34.786Z,9.10
2022-10-11T05:46:34.753Z,9.15
2022-10-11T05:47:34.727Z,9.10
2022-10-11T05:48:34.702Z,8.99
2022-10-11T05:49:34.681Z,9.06
2022-10-11T05:50:34.659Z,8.94
2022-10-11T05:51:34.636Z,8.91
2022-10-11T05:52:34.610Z,8.86
2022-10-11T05:53:34.583Z,8.83
2022-10-11T05:54:34.558Z,8.78
2022-10-11T05:55:34.537Z,8.81
2022-10-11T05:56:34.512Z,8.79
2022-10-11T05:57:34.485Z,8.83
2022-10-11T05:58:34.464Z,8.86
2022-10-11T05:59:34.449Z,8.81
2022-10-11T06:00:34.414Z,8.78
2022-10-11T06:01:34.456Z,8.78
2022-10-11T06:02:34.371Z,8.79
2022-10-11T06:03:34.351Z,8.88
2022-10-11T06:04:34.318Z,8.93
2022-10-11T06:05:34.302Z,8.90
2022-10-11T06:06:34.276Z,8.94
2022-10-11T06:07:34.258Z,9.01
2022-10-11T06:08:34.221Z,9.04
2022-10-11T06:09:34.198Z,9.06
2022-10-11T06:10:34.195Z,9.13
2022-10-11T06:11:34.147Z,9.16
2022-10-11T06:12:34.134Z,9.21
2022-10-11T06:13:34.148Z,9.20
2022-10-11T06:14:34.120Z,9.23
2022-10-11T06:15:34.054Z,9.31
2022-10-11T06:16:34.030Z,9.32
2022-10-11T06:17:34.011Z,9.38
2022-10-11T06:18:33.981Z,9.43
2022-10-11T06:19:33.956Z,9.42
2022-10-11T06:20:33.936Z,9.48
2022-10-11T06:21:33.912Z,9.49
2022-10-11T06:22:33.885Z,9.56
2022-10-11T06:23:33.863Z,9.63
2022-10-11T06:24:33.855Z,9.60
2022-10-11T06:25:33.821Z,9.75
2022-10-11T06:26:33.815Z,9.73
2022-10-11T06:27:33.768Z,9.83
2022-10-11T06:28:33.793Z,9.93
2022-10-11T06:29:33.731Z,9.82
2022-10-11T06:30:33.714Z,9.93
2022-10-11T06:31:33.673Z,9.97
2022-10-11T06:32:33.648Z,10.04
2022-10-11T06:33:33.634Z,10.07
2022-10-11T06:34:33.599Z,10.07
2022-10-11T06:35:33.581Z,10.03
2022-10-11T06:36:33.554Z,10.03
2022-10-11T06:37:33.530Z,10.00
2022-10-11T06:38:33.522Z,10.00
2022-10-11T06:39:33.497Z,10.00
2022-10-11T06:40:33.460Z,10.00
2022-10-11T06:41:33.457Z,10.09
2022-10-11T06:42:33.409Z,10.04
2022-10-11T06:43:33.403Z,10.15
2022-10-11T06:44:33.365Z,10.09
2022-10-11T06:45:33.340Z,10.09
2022-10-11T06:46:33.329Z,10.15
2022-10-11T06:47:33.291Z,10.12
2022-10-11T06:48:33.271Z,10.15
2022-10-11T06:49:33.243Z,10.19
2022-10-11T06:50:58.046Z,10.18
2022-10-11T06:51:33.204Z,10.26
2022-10-11T06:52:33.178Z,10.25
2022-10-11T06:53:33.154Z,10.21
2022-10-11T06:54:33.129Z,10.33
2022-10-11T06:55:33.108Z,10.24
2022-10-11T06:56:33.081Z,10.36
2022-10-11T06:57:33.059Z,10.36
2022-10-11T06:58:33.039Z,10.40
2022-10-11T06:59:33.013Z,10.51
2022-10-11T07:00:32.991Z,10.53
2022-10-11T07:01:33.026Z,10.55
2022-10-11T07:02:32.942Z,10.63
2022-10-11T07:03:32.925Z,10.76
2022-10-11T07:04:32.894Z,10.78
2022-10-11T07:05:32.888Z,10.84
2022-10-11T07:06:32.847Z,10.84
2022-10-11T07:07:32.828Z,10.88
2022-10-11T07:08:32.803Z,10.84
2022-10-11T07:09:32.781Z,10.84
2022-10-11T07:10:32.755Z,10.83
2022-10-11T07:11:32.735Z,10.84
2022-10-11T07:12:32.709Z,10.76
2022-10-11T07:13:32.698Z,10.68
2022-10-11T07:14:32.665Z,10.73
2022-10-11T07:15:32.662Z,10.66
2022-10-11T07:16:32.619Z,10.76
2022-10-11T07:17:32.593Z,10.71
2022-10-11T07:18:32.573Z,10.53
2022-10-11T07:19:32.548Z,10.62
2022-10-11T07:20:32.541Z,10.62
2022-10-11T07:21:32.512Z,10.66
2022-10-11T07:22:32.480Z,10.59
2022-10-11T07:23:32.459Z,10.56
2022-10-11T07:24:33.168Z,10.44
2022-10-11T07:25:32.412Z,10.52
2022-10-11T07:26:37.684Z,10.55
2022-10-11T07:27:32.369Z,10.56
2022-10-11T07:28:32.403Z,10.60
2022-10-11T07:29:32.317Z,10.66
2022-10-11T07:30:32.300Z,10.56
2022-10-11T07:31:32.274Z,10.55
2022-10-11T07:32:32.254Z,10.59
2022-10-11T07:33:32.226Z,10.60
2022-10-11T07:34:32.203Z,10.58
2022-10-11T07:35:32.180Z,10.58
2022-10-11T07:36:32.158Z,10.60
2022-10-11T07:37:32.133Z,10.59
2022-10-11T07:38:32.112Z,10.55
2022-10-11T07:39:32.086Z,10.53
2022-10-11T07:40:32.062Z,10.52
2022-10-11T07:41:32.047Z,10.55
2022-10-11T07:42:32.019Z,10.52
2022-10-11T07:43:32.016Z,10.46
2022-10-11T07:44:31.969Z,10.44
2022-10-11T07:45:31.961Z,10.43
2022-10-11T07:46:31.926Z,10.52
2022-10-11T07:47:31.900Z,10.43
2022-10-11T07:48:31.877Z,10.51
2022-10-11T07:49:31.853Z,10.51
2022-10-11T07:50:31.827Z,10.55
2022-10-11T07:51:31.845Z,10.51
2022-10-11T07:52:31.791Z,10.58
2022-10-11T07:53:31.764Z,10.52
2022-10-11T07:54:31.734Z,10.52
2022-10-11T07:55:31.724Z,10.52
2022-10-11T07:56:31.690Z,10.59
2022-10-11T07:57:31.669Z,10.53
2022-10-11T07:58:31.645Z,10.55
2022-10-11T07:59:31.621Z,10.55
2022-10-11T08:00:31.598Z,10.52
2022-10-11T08:01:31.684Z,10.51
2022-10-11T08:02:31.556Z,10.55
2022-10-11T08:03:31.559Z,10.52
2022-10-11T08:04:31.520Z,10.56
2022-10-11T08:05:31.490Z,10.60
2022-10-11T08:06:31.463Z,10.68
2022-10-11T08:07:31.435Z,10.66
2022-10-11T08:08:31.426Z,10.73
2022-10-11T08:09:31.402Z,10.70
2022-10-11T08:10:31.381Z,10.73
2022-10-11T08:11:31.348Z,10.81
2022-10-11T08:12:31.318Z,10.76
2022-10-11T08:13:31.297Z,10.86
2022-10-11T08:14:31.276Z,10.77
2022-10-11T08:15:31.250Z,10.83
2022-10-11T08:16:31.232Z,10.83
2022-10-11T08:17:31.216Z,10.83
2022-10-11T08:18:31.183Z,10.94
2022-10-11T08:19:31.161Z,10.96
2022-10-11T08:20:31.222Z,11.10
2022-10-11T08:21:31.129Z,11.16
2022-10-11T08:22:31.092Z,11.06
2022-10-11T08:23:31.068Z,11.21
2022-10-11T08:24:35.885Z,11.21
2022-10-11T08:25:31.020Z,11.32
2022-10-11T08:26:31.007Z,11.38
2022-10-11T08:27:30.979Z,11.43
2022-10-11T08:28:30.964Z,11.31
2022-10-11T08:29:30.929Z,11.35
2022-10-11T08:30:30.915Z,11.46
2022-10-11T08:31:30.886Z,11.38
2022-10-11T08:32:30.866Z,11.35
2022-10-11T08:33:30.840Z,11.44
2022-10-11T08:34:30.813Z,11.53
2022-10-11T08:35:30.797Z,11.59
2022-10-11T08:36:30.770Z,11.65
2022-10-11T08:37:30.750Z,11.80
2022-10-11T08:38:30.724Z,11.90
2022-10-11T08:39:30.704Z,11.85
2022-10-11T08:40:35.159Z,11.94
2022-10-11T08:41:30.665Z,11.80
2022-10-11T08:42:30.659Z,11.97
2022-10-11T08:43:30.623Z,11.90
2022-10-11T08:44:46.159Z,12.04
2022-10-11T08:45:30.577Z,12.29
2022-10-11T08:46:30.552Z,12.30
2022-10-11T08:47:30.535Z,12.44
2022-10-11T08:48:30.507Z,12.54
2022-10-11T08:49:30.486Z,12.64
2022-10-11T08:50:30.468Z,12.67
2022-10-11T08:51:30.440Z,12.52
2022-10-11T08:52:30.417Z,12.54
2022-10-11T08:53:30.399Z,12.54
2022-10-11T08:54:30.376Z,12.39
2022-10-11T08:55:30.355Z,12.23
2022-10-11T08:56:30.335Z,12.29
2022-10-11T08:57:30.317Z,12.42
2022-10-11T08:58:30.299Z,12.49
2022-10-11T08:59:30.277Z,12.67
2022-10-11T09:00:30.265Z,12.84
2022-10-11T09:01:30.264Z,13.17
2022-10-11T09:02:43.916Z,13.12
2022-10-11T09:03:30.192Z,13.02
2022-10-11T09:04:30.166Z,13.04
2022-10-11T09:05:30.149Z,13.06
2022-10-11T09:06:30.127Z,13.24
2022-10-11T09:07:30.101Z,13.51
2022-10-11T09:08:30.093Z,13.41
2022-10-11T09:09:30.060Z,13.56
2022-10-11T09:10:30.039Z,13.69
2022-10-11T09:11:30.028Z,13.76
2022-10-11T09:12:33.489Z,13.83
2022-10-11T09:13:29.980Z,13.79
2022-10-11T09:14:29.956Z,13.69
2022-10-11T09:15:29.937Z,13.77
2022-10-11T09:16:29.918Z,13.80
2022-10-11T09:17:29.901Z,13.80
2022-10-11T09:18:29.881Z,13.92
2022-10-11T09:19:29.877Z,14.20
2022-10-11T09:20:29.832Z,14.25
2022-10-11T09:21:29.819Z,14.42
2022-10-11T09:22:30.871Z,14.93
2022-10-11T09:23:29.773Z,15.31
2022-10-11T09:24:29.752Z,15.23
2022-10-11T09:25:29.736Z,15.09
2022-10-11T09:26:29.719Z,15.06
2022-10-11T09:27:57.354Z,14.91
2022-10-11T09:28:29.742Z,14.95
2022-10-11T09:29:29.658Z,14.99
2022-10-11T09:30:29.655Z,15.24
2022-10-11T09:31:29.659Z,15.63
2022-10-11T09:32:29.609Z,15.57
2022-10-11T09:33:29.583Z,16.06
2022-10-11T09:34:29.558Z,16.60
2022-10-11T09:35:29.550Z,16.01
2022-10-11T09:36:29.523Z,15.84
2022-10-11T09:37:29.506Z,15.72
2022-10-11T09:38:29.482Z,15.68
2022-10-11T09:39:29.466Z,15.64
2022-10-11T09:40:29.447Z,15.49
2022-10-11T09:41:29.430Z,15.35
2022-10-11T09:42:29.406Z,15.08
2022-10-11T09:43:29.393Z,15.03
2022-10-11T09:44:29.444Z,15.06
2022-10-11T09:45:29.364Z,15.09
2022-10-11T09:46:29.332Z,14.95
2022-10-11T09:47:29.313Z,14.78
2022-10-11T09:48:29.295Z,14.90
2022-10-11T09:49:29.279Z,14.81
2022-10-11T09:50:29.258Z,14.80
2022-10-11T09:51:29.250Z,15.21
2022-10-11T09:52:29.219Z,15.49
2022-10-11T09:53:29.199Z,15.59
2022-10-11T09:54:29.184Z,15.74
2022-10-11T09:55:29.159Z,16.11
2022-10-11T09:56:29.145Z,15.84
2022-10-11T09:57:29.126Z,15.76
2022-10-11T09:58:29.103Z,15.51
2022-10-11T09:59:29.101Z,15.13
2022-10-11T10:00:29.081Z,14.99
2022-10-11T10:01:29.133Z,15.45
2022-10-11T10:02:29.024Z,15.82
2022-10-11T10:03:29.009Z,15.64
2022-10-11T10:04:28.988Z,15.52
2022-10-11T10:05:28.972Z,15.57
2022-10-11T10:06:28.961Z,15.49
2022-10-11T10:07:28.932Z,15.51
2022-10-11T10:08:28.917Z,15.46
2022-10-11T10:09:28.892Z,15.59
2022-10-11T10:10:28.882Z,15.63
2022-10-11T10:11:28.858Z,15.76
2022-10-11T10:12:28.837Z,16.07
2022-10-11T10:13:28.820Z,16.30
2022-10-11T10:14:28.801Z,16.37
2022-10-11T10:15:28.781Z,16.67
2022-10-11T10:16:28.852Z,16.78
2022-10-11T10:17:28.746Z,16.85
2022-10-11T10:18:28.727Z,16.85
2022-10-11T10:19:28.713Z,16.73
2022-10-11T10:20:28.697Z,16.77
2022-10-11T10:21:28.672Z,16.65
2022-10-11T10:22:28.652Z,16.48
2022-10-11T10:23:28.638Z,16.30
2022-10-11T10:24:28.617Z,16.26
2022-10-11T10:25:28.600Z,16.22
2022-10-11T10:26:28.583Z,16.31
2022-10-11T10:27:28.571Z,16.26
2022-10-11T10:28:28.622Z,16.33
2022-10-11T10:29:28.532Z,16.26
2022-10-11T10:30:33.072Z,16.37
2022-10-11T10:31:28.496Z,16.33
2022-10-11T10:32:28.479Z,16.22
2022-10-11T10:33:28.456Z,16.23
2022-10-11T10:34:28.445Z,15.79
2022-10-11T10:35:28.431Z,16.04
2022-10-11T10:36:28.406Z,16.27
2022-10-11T10:37:28.392Z,16.20
2022-10-11T10:38:28.370Z,16.31
2022-10-11T10:39:28.358Z,16.27
2022-10-11T10:40:28.339Z,16.31
2022-10-11T10:41:28.325Z,16.35
2022-10-11T10:42:28.305Z,16.30
2022-10-11T10:43:28.290Z,16.33
2022-10-11T10:44:28.272Z,16.27
2022-10-11T10:45:28.251Z,16.34
2022-10-11T10:46:28.241Z,16.34
2022-10-11T10:47:28.222Z,16.33
2022-10-11T10:48:28.200Z,16.31
2022-10-11T10:49:52.559Z,16.53
2022-10-11T10:50:28.171Z,16.74
2022-10-11T10:51:28.151Z,16.88
2022-10-11T10:52:28.129Z,17.03
2022-10-11T10:53:28.118Z,17.30
2022-10-11T10:54:28.097Z,17.85
2022-10-11T10:55:28.081Z,18.29
2022-10-11T10:56:28.067Z,18.98
2022-10-11T10:57:28.057Z,18.90
2022-10-11T10:58:28.035Z,18.44
2022-10-11T10:59:28.018Z,18.40
2022-10-11T11:00:28.002Z,18.07
2022-10-11T11:01:28.063Z,17.84
2022-10-11T11:02:40.455Z,17.66
2022-10-11T11:03:27.959Z,17.50
2022-10-11T11:04:27.950Z,17.36
2022-10-11T11:05:27.924Z,17.44
2022-10-11T11:06:28.992Z,17.26
2022-10-11T11:07:27.938Z,17.44
2022-10-11T11:08:27.876Z,17.41
2022-10-11T11:09:27.867Z,17.87
2022-10-11T11:10:27.854Z,17.59
2022-10-11T11:11:27.831Z,17.84
2022-10-11T11:12:27.823Z,18.37
2022-10-11T11:13:27.807Z,18.73
2022-10-11T11:14:27.795Z,19.25
2022-10-11T11:15:32.481Z,19.47
2022-10-11T11:16:27.757Z,19.54
2022-10-11T11:17:27.748Z,19.50
2022-10-11T11:18:27.749Z,19.48
2022-10-11T11:19:27.719Z,19.58
2022-10-11T11:20:27.709Z,19.54
2022-10-11T11:21:27.724Z,19.72
2022-10-11T11:22:32.481Z,19.80
2022-10-11T11:23:27.665Z,19.87
2022-10-11T11:24:27.656Z,19.66
2022-10-11T11:25:27.639Z,19.72
2022-10-11T11:26:27.626Z,19.90
2022-10-11T11:27:27.616Z,19.84
2022-10-11T11:28:27.659Z,19.61
2022-10-11T11:29:27.592Z,19.46
2022-10-11T11:30:27.586Z,19.43
2022-10-11T11:31:27.573Z,19.50
2022-10-11T11:32:27.556Z,19.29
2022-10-11T11:33:27.544Z,19.36
2022-10-11T11:34:27.549Z,19.54
2022-10-11T11:35:27.517Z,19.51
2022-10-11T11:36:27.526Z,19.39
2022-10-11T11:37:27.490Z,19.39
2022-10-11T11:38:29.765Z,19.31
2022-10-11T11:39:27.468Z,19.23
2022-10-11T11:40:27.457Z,19.10
2022-10-11T11:41:27.462Z,19.01
2022-10-11T11:42:27.438Z,18.79
2022-10-11T11:43:27.422Z,18.76
2022-10-11T11:44:27.801Z,18.91
2022-10-11T11:45:27.395Z,18.90
2022-10-11T11:46:27.384Z,18.87
2022-10-11T11:47:27.372Z,19.25
2022-10-11T11:48:27.356Z,19.68
2022-10-11T11:49:27.348Z,19.80
2022-10-11T11:50:28.688Z,19.63
2022-10-11T11:51:30.484Z,19.78
2022-10-11T11:52:27.315Z,19.90
2022-10-11T11:53:27.308Z,19.97
2022-10-11T11:54:27.290Z,20.24
2022-10-11T11:55:27.296Z,19.95
2022-10-11T11:56:27.267Z,19.84
2022-10-11T11:57:27.254Z,19.76
2022-10-11T11:58:27.242Z,19.75
2022-10-11T11:59:27.233Z,19.55
2022-10-11T12:00:27.218Z,19.65
2022-10-11T12:01:31.102Z,19.73
2022-10-11T12:02:27.320Z,19.66
2022-10-11T12:03:27.189Z,19.25
2022-10-11T12:04:27.174Z,19.31
2022-10-11T12:05:27.174Z,19.20
2022-10-11T12:06:27.153Z,19.11
2022-10-11T12:07:27.145Z,19.13
2022-10-11T12:08:27.137Z,19.28
2022-10-11T12:09:27.120Z,19.32
2022-10-11T12:10:27.169Z,19.55
2022-10-11T12:11:30.491Z,19.68
2022-10-11T12:12:27.092Z,19.91
2022-10-11T12:13:32.011Z,19.72
2022-10-11T12:14:27.065Z,19.76
2022-10-11T12:15:27.116Z,19.79
2022-10-11T12:16:27.044Z,19.88
2022-10-11T12:17:27.040Z,19.75
2022-10-11T12:18:27.029Z,19.87
2022-10-11T12:19:27.012Z,20.15
2022-10-11T12:20:27.003Z,20.18
2022-10-11T12:21:26.995Z,20.10
2022-10-11T12:22:26.983Z,20.15
2022-10-11T12:23:26.973Z,20.03
2022-10-11T12:24:27.014Z,20.27
2022-10-11T12:25:26.958Z,20.18
2022-10-11T12:26:26.952Z,20.28
2022-10-11T12:27:26.931Z,20.31
2022-10-11T12:28:26.958Z,20.02
2022-10-11T12:29:29.012Z,20.15
2022-10-11T12:30:26.899Z,19.63
2022-10-11T12:31:26.899Z,19.50
2022-10-11T12:32:26.877Z,19.35
2022-10-11T12:33:26.871Z,19.63
2022-10-11T12:34:26.895Z,19.72
2022-10-11T12:35:26.849Z,19.40
2022-10-11T12:36:26.840Z,19.35
2022-10-11T12:37:26.825Z,19.40
2022-10-11T12:38:26.819Z,19.50
2022-10-11T12:39:26.809Z,19.79
2022-10-11T12:40:26.801Z,19.76
2022-10-11T12:41:26.785Z,19.66
2022-10-11T12:42:26.775Z,19.51
2022-10-11T12:43:26.763Z,19.76
2022-10-11T12:44:26.759Z,20.05
2022-10-11T12:45:26.742Z,19.94
2022-10-11T12:46:26.738Z,19.87
2022-10-11T12:47:26.727Z,20.02
2022-10-11T12:48:33.139Z,20.23
2022-10-11T12:49:26.705Z,20.21
2022-10-11T12:50:26.699Z,20.31
2022-10-11T12:51:26.705Z,20.38
2022-10-11T12:52:26.670Z,20.69
2022-10-11T12:53:26.662Z,20.46
2022-10-11T12:54:29.991Z,20.28
2022-10-11T12:55:26.641Z,20.31
2022-10-11T12:56:26.635Z,19.93
2022-10-11T12:57:26.616Z,19.63